Walnut, Iowa
Current Conditions -  °F | °C
As of 7:15 PM on Sunday 23 Nov 2014 (Local Time) from KHNR Reporting Station
Overcast Overcast  
Wind Chill:   Ceiling: 10000
Heat Index:   Visibility: 10mi
Dew Point:   Wind: 20mph
Humidity: 76%   Direction: 340°NNW
Pressure: 29.52"   Gusts: 30mph
Location:  41.48°N, 95.22°W
Report Text: KHNR 240115Z AUTO 34017G26KT 10SM OVC100 05/01 A2952 RMK AO2
Loading
Personal Weather Stations






























Interactive Weather Map New forecast layout! Learn more

10-Day Weather Forecast

Advertisements
Track Severe Weather on mobile